Time;durP1;ratioP1;P1;durP2;ratioP2;P2;SDS_P1;SDS_P2;PMS_P1;PMS_P2;Temp;Humidity;BMP_temperature;BMP_pressure;BME280_temperature;BME280_humidity;BME280_pressure;Samples;Min_cycle;Max_cycle;Signal;HPM_P1;HPM_P2
2021/03/06 00:01:02;;;;;;;12.87;6.67;;;;;;;-3.10;77.23;101540.69;99561;1172;66915;-70
2021/03/06 00:03:11;;;;;;;11.30;7.20;;;;;;;-3.12;77.30;101539.05;99545;1167;87798;-70
2021/03/06 00:05:17;;;;;;;13.10;7.30;;;;;;;-3.13;76.94;101542.64;99542;1166;74849;-70
2021/03/06 00:07:22;;;;;;;15.47;8.37;;;;;;;-3.19;77.06;101550.86;99557;1172;89199;-64
2021/03/06 00:09:28;;;;;;;13.85;7.55;;;;;;;-3.20;77.32;101543.85;99531;1171;82377;-64
2021/03/06 00:11:34;;;;;;;12.50;7.10;;;;;;;-3.25;77.35;101540.58;99576;1171;67067;-64
2021/03/06 00:13:46;;;;;;;11.45;6.45;;;;;;;-3.33;77.39;101543.59;99545;1172;87681;-70
2021/03/06 00:15:52;;;;;;;12.55;6.25;;;;;;;-3.39;77.82;101545.67;99561;1167;74727;-71
2021/03/06 00:17:58;;;;;;;14.10;7.60;;;;;;;-3.48;77.36;101543.45;99557;1171;90855;-71
2021/03/06 00:20:06;;;;;;;21.25;10.80;;;;;;;-3.45;77.09;101548.59;99536;1171;82496;-70
2021/03/06 00:22:12;;;;;;;37.15;18.05;;;;;;;-3.43;77.32;101546.76;99446;1171;66834;-72
2021/03/06 00:24:18;;;;;;;41.95;20.90;;;;;;;-3.41;77.24;101547.53;99546;1171;87079;-70
2021/03/06 00:26:23;;;;;;;54.15;27.75;;;;;;;-3.40;78.01;101549.22;99443;1174;75007;-70
2021/03/06 00:28:29;;;;;;;38.20;19.90;;;;;;;-3.44;78.08;101543.25;99447;1174;88780;-64
2021/03/06 00:30:35;;;;;;;35.70;17.45;;;;;;;-3.37;77.75;101547.30;99431;1174;82736;-65
2021/03/06 00:32:41;;;;;;;32.95;17.00;;;;;;;-3.35;77.48;101549.89;99560;1172;66810;-64
2021/03/06 00:34:47;;;;;;;29.45;15.30;;;;;;;-3.39;77.96;101543.89;99444;1167;86514;-64
2021/03/06 00:36:56;;;;;;;32.85;16.90;;;;;;;-3.39;77.90;101554.45;99587;1172;75882;-70
2021/03/06 00:39:02;;;;;;;34.23;17.00;;;;;;;-3.39;77.85;101559.73;99436;1174;89379;-71
2021/03/06 00:41:07;;;;;;;33.45;18.10;;;;;;;-3.39;77.41;101558.88;99435;1174;83101;-70
2021/03/06 00:43:13;;;;;;;43.10;21.70;;;;;;;-3.41;78.01;101553.67;99445;1174;67067;-64
2021/03/06 00:45:20;;;;;;;38.45;20.40;;;;;;;-3.53;77.63;101546.32;99533;1172;88054;-63
2021/03/06 00:47:26;;;;;;;38.80;21.20;;;;;;;-3.52;77.89;101548.05;99577;1170;74864;-70
2021/03/06 00:49:35;;;;;;;40.90;21.50;;;;;;;-3.53;77.70;101542.81;99437;1168;89033;-70
2021/03/06 00:51:44;;;;;;;36.40;19.33;;;;;;;-3.54;77.41;101544.59;99543;1168;82158;-66
2021/03/06 00:53:50;;;;;;;28.70;15.20;;;;;;;-3.51;77.87;101548.88;99554;1172;66833;-71
2021/03/06 00:55:56;;;;;;;25.00;13.80;;;;;;;-3.51;77.59;101548.88;99419;1168;87008;-70
2021/03/06 00:58:05;;;;;;;23.75;13.35;;;;;;;-3.53;78.04;101546.32;99560;1171;75005;-64
2021/03/06 01:00:17;;;;;;;21.90;12.20;;;;;;;-3.54;77.74;101541.13;99439;1174;89603;-64
2021/03/06 01:02:23;;;;;;;20.90;12.40;;;;;;;-3.59;77.78;101546.59;99556;1171;82883;-72
2021/03/06 01:04:29;;;;;;;20.10;10.70;;;;;;;-3.60;77.61;101539.63;99567;1172;67083;-69
2021/03/06 01:06:35;;;;;;;19.50;10.55;;;;;;;-3.67;77.63;101535.54;99434;1174;87031;-69
2021/03/06 01:08:43;;;;;;;16.60;8.90;;;;;;;-3.66;77.22;101530.20;99543;1172;74218;-68
2021/03/06 01:10:51;;;;;;;16.03;8.97;;;;;;;-3.71;77.37;101542.73;99432;1174;89768;-68
2021/03/06 01:12:57;;;;;;;17.75;9.60;;;;;;;-3.75;77.79;101540.32;99527;1172;82775;-64
2021/03/06 01:15:05;;;;;;;24.20;10.80;;;;;;;-3.71;78.03;101536.63;99541;1167;66824;-64
2021/03/06 01:17:10;;;;;;;26.85;11.45;;;;;;;-3.70;78.26;101538.32;99448;1174;86604;-69
2021/03/06 01:19:19;;;;;;;39.30;16.00;;;;;;;-3.67;78.37;101539.05;99557;1170;75328;-69
2021/03/06 01:21:28;;;;;;;42.57;16.30;;;;;;;-3.66;78.36;101535.48;99547;1172;89365;-69
2021/03/06 01:23:33;;;;;;;32.60;13.30;;;;;;;-3.65;77.76;101538.95;99534;1172;82782;-69
2021/03/06 01:25:40;;;;;;;28.70;12.50;;;;;;;-3.66;78.13;101553.11;99557;1167;67107;-69
2021/03/06 01:27:46;;;;;;;23.00;10.20;;;;;;;-3.71;78.13;101552.47;99436;1171;86456;-69
2021/03/06 01:29:54;;;;;;;23.23;10.27;;;;;;;-3.72;78.15;101548.10;99573;1172;75963;-69
2021/03/06 01:32:00;;;;;;;25.20;10.07;;;;;;;-3.71;78.02;101557.75;99550;1172;89022;-68
2021/03/06 01:34:06;;;;;;;28.40;11.80;;;;;;;-3.70;78.04;101554.16;99429;1174;83592;-68
2021/03/06 01:36:12;;;;;;;35.60;14.20;;;;;;;-3.68;77.83;101552.33;99565;1168;67109;-69
2021/03/06 01:38:18;;;;;;;29.90;14.10;;;;;;;-3.68;78.29;101549.69;99424;1174;87254;-65
2021/03/06 01:40:28;;;;;;;33.30;16.35;;;;;;;-3.68;78.16;101552.33;99438;1171;74854;-65
2021/03/06 01:42:33;;;;;;;24.40;14.60;;;;;;;-3.79;78.26;101549.33;99443;1174;89284;-70
2021/03/06 01:44:42;;;;;;;20.55;12.75;;;;;;;-3.87;78.59;101552.29;99532;1172;82929;-70
2021/03/06 01:46:48;;;;;;;18.65;12.60;;;;;;;-3.93;78.96;101546.45;99448;1174;66870;-70
2021/03/06 01:48:53;;;;;;;33.10;16.00;;;;;;;-3.98;78.64;101533.45;99545;1172;86865;-70
2021/03/06 01:50:59;;;;;;;48.80;20.65;;;;;;;-4.02;78.89;101541.58;99446;1171;75311;-70
2021/03/06 01:53:07;;;;;;;60.80;22.80;;;;;;;-4.00;78.45;101548.50;99483;1171;89328;-70
2021/03/06 01:55:15;;;;;;;56.00;22.40;;;;;;;-4.01;78.32;101548.59;99514;1172;82482;-70
2021/03/06 01:57:21;;;;;;;54.95;19.70;;;;;;;-3.98;78.47;101544.00;99563;1171;67106;-69
2021/03/06 01:59:27;;;;;;;55.10;19.90;;;;;;;-3.98;78.60;101543.17;99433;1171;86657;-69
2021/03/06 02:01:33;;;;;;;53.93;20.03;;;;;;;-3.97;78.61;101555.42;99557;1167;75033;-70
2021/03/06 02:03:38;;;;;;;36.63;15.73;;;;;;;-3.95;78.76;101551.78;99431;1174;89950;-70
2021/03/06 02:05:47;;;;;;;38.20;15.65;;;;;;;-3.91;78.67;101552.52;99418;1171;82212;-70
2021/03/06 02:07:54;;;;;;;33.60;13.40;;;;;;;-3.95;78.76;101543.87;99562;1171;66944;-64
2021/03/06 02:10:04;;;;;;;23.60;11.45;;;;;;;-3.97;78.62;101545.73;99443;1174;87338;-64
2021/03/06 02:12:24;;;;;;;21.10;10.20;;;;;;;-4.03;78.32;101550.41;99572;1172;75696;-70
2021/03/06 02:14:52;;;;;;;16.80;7.65;;;;;;;-4.02;78.70;101546.86;99558;1172;88052;-70
2021/03/06 02:17:10;;;;;;;18.55;9.55;;;;;;;-4.05;78.82;101541.72;99552;1171;82905;-64
2021/03/06 02:19:45;;;;;;;20.20;10.00;;;;;;;-4.10;78.79;101543.71;99570;1172;66889;-64
2021/03/06 02:22:07;;;;;;;21.90;10.55;;;;;;;-4.14;78.91;101542.13;99534;1172;86717;-65
2021/03/06 02:24:52;;;;;;;18.30;9.90;;;;;;;-4.17;78.67;101550.20;99458;1171;74977;-64
2021/03/06 02:27:12;;;;;;;20.50;10.40;;;;;;;-4.17;78.77;101551.03;99548;1172;89528;-65
2021/03/06 02:29:41;;;;;;;33.40;15.20;;;;;;;-4.26;78.28;101554.92;99517;1167;82890;-65
2021/03/06 02:31:49;;;;;;;52.07;23.03;;;;;;;-4.33;78.51;101561.41;99441;1174;67048;-65
2021/03/06 02:34:02;;;;;;;51.40;23.47;;;;;;;-4.36;78.82;101558.03;99558;1168;87761;-65
2021/03/06 02:36:13;;;;;;;52.30;24.33;;;;;;;-4.36;78.81;101553.63;99556;1172;75888;-65
2021/03/06 02:38:21;;;;;;;35.10;16.60;;;;;;;-4.36;78.62;101555.40;99444;1174;89797;-69
2021/03/06 02:40:28;;;;;;;28.10;13.53;;;;;;;-4.38;78.39;101559.89;99538;1167;82318;-69
2021/03/06 02:42:36;;;;;;;25.30;12.30;;;;;;;-4.40;78.79;101559.97;99442;1174;67012;-65
2021/03/06 02:44:43;;;;;;;25.50;13.30;;;;;;;-4.43;78.62;101557.47;99440;1174;87020;-65
2021/03/06 02:46:51;;;;;;;20.33;10.53;;;;;;;-4.43;78.71;101562.73;99467;1172;74853;-65
2021/03/06 02:48:57;;;;;;;17.05;8.85;;;;;;;-4.41;78.72;101566.16;99548;1172;90005;-65
2021/03/06 02:51:04;;;;;;;19.30;10.40;;;;;;;-4.43;79.08;101568.01;99541;1171;81668;-65
2021/03/06 02:53:10;;;;;;;25.60;10.90;;;;;;;-4.45;78.74;101567.20;99474;1168;66903;-69
2021/03/06 02:55:16;;;;;;;40.00;17.10;;;;;;;-4.53;79.12;101573.75;99554;1170;86722;-69
2021/03/06 02:57:47;;;;;;;37.77;15.47;;;;;;;-4.56;78.79;101574.70;99454;1174;75458;-65
2021/03/06 03:00:13;;;;;;;29.60;14.40;;;;;;;-4.57;78.80;101575.64;99547;1167;89124;-65
2021/03/06 03:02:35;;;;;;;28.40;13.50;;;;;;;-4.57;78.42;101575.64;99433;1175;82845;-64
2021/03/06 03:05:07;;;;;;;25.80;12.90;;;;;;;-4.60;78.64;101565.23;99440;1174;66989;-65
2021/03/06 03:07:22;;;;;;;21.40;9.60;;;;;;;-4.61;79.04;101574.05;99434;1175;87579;-70
2021/03/06 03:09:33;;;;;;;21.30;9.53;;;;;;;-4.63;78.74;101583.81;99449;1171;75246;-70
2021/03/06 03:11:53;;;;;;;20.70;10.10;;;;;;;-4.59;78.88;101581.91;99433;1167;89252;-69
2021/03/06 03:14:00;;;;;;;28.95;13.20;;;;;;;-4.57;78.80;101586.19;99425;1171;81570;-65
2021/03/06 03:16:12;;;;;;;26.15;12.30;;;;;;;-4.58;78.93;101584.47;99444;1168;67109;-65
2021/03/06 03:18:23;;;;;;;30.20;13.40;;;;;;;-4.61;79.02;101589.00;99452;1174;87679;-71
2021/03/06 03:20:36;;;;;;;33.80;14.20;;;;;;;-4.63;79.10;101591.72;99449;1175;75846;-70
2021/03/06 03:22:49;;;;;;;30.70;14.30;;;;;;;-4.65;78.85;101590.06;99444;1175;89733;-65
2021/03/06 03:25:01;;;;;;;29.30;13.05;;;;;;;-4.62;78.85;101597.85;99421;1174;82584;-64
2021/03/06 03:27:11;;;;;;;34.55;15.20;;;;;;;-4.63;79.10;101601.39;99440;1168;66883;-64
2021/03/06 03:29:18;;;;;;;30.40;14.95;;;;;;;-4.66;78.87;101605.02;99435;1173;87204;-64
2021/03/06 03:31:27;;;;;;;34.70;17.00;;;;;;;-4.71;78.98;101604.36;99452;1171;74769;-64
2021/03/06 03:33:35;;;;;;;29.87;16.23;;;;;;;-4.75;79.13;101610.66;99434;1174;89314;-70
2021/03/06 03:35:44;;;;;;;23.30;13.70;;;;;;;-4.77;79.30;101616.01;99424;1171;82143;-69
2021/03/06 03:37:54;;;;;;;24.50;12.40;;;;;;;-4.77;79.16;101615.14;99446;1174;66893;-69
2021/03/06 03:40:00;;;;;;;19.60;10.90;;;;;;;-4.74;79.16;101616.80;99434;1174;87434;-69
2021/03/06 03:42:08;;;;;;;19.90;9.70;;;;;;;-4.72;79.41;101622.89;99455;1174;74941;-64
2021/03/06 03:44:20;;;;;;;19.60;10.60;;;;;;;-4.71;79.25;101621.94;99439;1171;89532;-64
2021/03/06 03:46:26;;;;;;;26.10;12.00;;;;;;;-4.70;78.94;101621.03;99434;1167;81471;-64
2021/03/06 03:48:32;;;;;;;28.47;13.00;;;;;;;-4.73;79.14;101623.80;99450;1168;67042;-70
2021/03/06 03:50:39;;;;;;;24.10;12.00;;;;;;;-4.74;79.20;101630.84;99434;1175;87086;-70
2021/03/06 03:52:50;;;;;;;26.87;12.73;;;;;;;-4.73;79.03;101624.66;99446;1174;75661;-65
2021/03/06 03:54:56;;;;;;;25.45;12.70;;;;;;;-4.71;79.28;101625.44;99437;1171;89545;-65
2021/03/06 03:57:03;;;;;;;24.50;11.45;;;;;;;-4.74;78.95;101625.56;99424;1174;83247;-69
2021/03/06 03:59:09;;;;;;;25.45;12.80;;;;;;;-4.75;78.71;101625.64;99447;1168;67148;-69
2021/03/06 04:01:17;;;;;;;22.30;10.90;;;;;;;-4.79;79.48;101628.40;99443;1168;86476;-70
2021/03/06 04:03:27;;;;;;;23.25;10.95;;;;;;;-4.81;79.35;101621.48;99446;1167;75877;-64
2021/03/06 04:05:33;;;;;;;22.90;11.70;;;;;;;-4.82;78.96;101628.52;99440;1175;89144;-64
2021/03/06 04:07:47;;;;;;;20.50;9.60;;;;;;;-4.82;78.94;101630.30;99418;1171;81866;-70
2021/03/06 04:09:53;;;;;;;16.77;8.50;;;;;;;-4.84;78.71;101634.77;99448;1167;66953;-71
2021/03/06 04:11:59;;;;;;;16.50;8.30;;;;;;;-4.83;78.78;101644.38;99437;1171;87938;-73
2021/03/06 04:14:06;;;;;;;15.20;8.40;;;;;;;-4.84;79.26;101640.05;99455;1174;75493;-72
2021/03/06 04:16:12;;;;;;;14.55;7.55;;;;;;;-4.81;78.89;101642.56;99441;1168;88368;-72
2021/03/06 04:18:17;;;;;;;12.60;7.70;;;;;;;-4.80;79.08;101642.48;99422;1175;83707;-64
2021/03/06 04:20:24;;;;;;;16.50;10.40;;;;;;;-4.82;78.89;101646.11;99453;1175;66856;-65
2021/03/06 04:22:29;;;;;;;13.80;7.53;;;;;;;-4.84;78.88;101655.86;99434;1171;86767;-71
2021/03/06 04:24:35;;;;;;;15.65;8.00;;;;;;;-4.92;78.69;101650.90;99452;1171;75272;-71
2021/03/06 04:26:44;;;;;;;17.10;7.50;;;;;;;-4.91;79.27;101662.27;99436;1167;88668;-69
2021/03/06 04:28:50;;;;;;;18.40;8.30;;;;;;;-4.95;78.87;101664.19;99421;1175;81637;-71
2021/03/06 04:30:55;;;;;;;12.30;6.90;;;;;;;-4.98;79.20;101661.67;99435;1171;67117;-71
2021/03/06 04:33:01;;;;;;;14.63;7.13;;;;;;;-4.99;79.00;101661.72;99436;1168;87192;-64
2021/03/06 04:35:10;;;;;;;15.73;7.07;;;;;;;-4.99;79.14;101659.08;99439;1175;76247;-64
2021/03/06 04:37:16;;;;;;;13.30;6.90;;;;;;;-4.95;79.19;101658.92;99443;1167;89597;-71
2021/03/06 04:39:22;;;;;;;12.75;7.15;;;;;;;-4.93;79.19;101666.75;99421;1175;83196;-71
2021/03/06 04:41:28;;;;;;;12.13;7.17;;;;;;;-4.91;78.91;101667.54;99442;1168;67053;-71
2021/03/06 04:43:33;;;;;;;12.80;6.60;;;;;;;-4.88;78.96;101676.19;99448;1175;87920;-64
2021/03/06 04:45:39;;;;;;;14.47;6.83;;;;;;;-4.82;79.28;101667.19;99438;1171;75303;-64
2021/03/06 04:47:46;;;;;;;13.10;7.10;;;;;;;-4.81;79.32;101675.02;99430;1171;89005;-64
2021/03/06 04:49:52;;;;;;;9.63;5.83;;;;;;;-4.77;79.37;101670.49;99416;1175;82945;-63
2021/03/06 04:51:58;;;;;;;13.10;6.90;;;;;;;-4.73;79.38;101661.55;99453;1175;66840;-63
2021/03/06 04:54:08;;;;;;;13.05;6.25;;;;;;;-4.65;79.27;101667.38;99439;1171;87986;-64
2021/03/06 04:56:14;;;;;;;11.37;6.23;;;;;;;-4.53;79.86;101663.39;99454;1175;75676;-64
2021/03/06 04:58:19;;;;;;;13.55;6.70;;;;;;;-4.45;80.04;101669.20;99436;1175;89987;-71
2021/03/06 05:00:26;;;;;;;12.60;6.45;;;;;;;-4.39;79.87;101672.42;99418;1175;83015;-70
2021/03/06 05:02:32;;;;;;;12.00;6.50;;;;;;;-4.36;79.68;101680.21;99446;1175;67051;-64
2021/03/06 05:04:38;;;;;;;11.50;7.05;;;;;;;-4.30;79.77;101682.60;99437;1175;87050;-63
2021/03/06 05:06:45;;;;;;;11.70;6.80;;;;;;;-4.19;79.77;101675.09;99451;1173;74489;-70
2021/03/06 05:08:51;;;;;;;16.15;6.60;;;;;;;-4.10;80.09;101681.77;99449;1175;88273;-71
2021/03/06 05:10:57;;;;;;;11.80;6.20;;;;;;;-4.03;79.54;101677.93;99416;1171;82432;-70
2021/03/06 05:13:02;;;;;;;13.40;6.65;;;;;;;-3.92;79.95;101677.47;99441;1167;67025;-63
2021/03/06 05:15:11;;;;;;;11.60;5.30;;;;;;;-3.93;80.18;101670.49;99434;1171;87277;-64
2021/03/06 05:17:17;;;;;;;11.70;5.90;;;;;;;-3.86;80.23;101679.84;99454;1175;75007;-70
2021/03/06 05:19:23;;;;;;;12.80;6.60;;;;;;;-3.77;79.40;101679.45;99446;1175;89196;-70
2021/03/06 05:21:29;;;;;;;14.35;6.75;;;;;;;-3.73;79.96;101675.73;99411;1175;82298;-71
2021/03/06 05:23:34;;;;;;;15.95;6.40;;;;;;;-3.69;79.91;101677.33;99456;1171;66938;-63
2021/03/06 05:25:40;;;;;;;13.55;5.80;;;;;;;-3.61;80.01;101670.79;99434;1171;86673;-63
2021/03/06 05:27:46;;;;;;;11.80;6.00;;;;;;;-3.50;80.07;101680.87;99436;1171;75300;-63
2021/03/06 05:29:53;;;;;;;11.70;6.20;;;;;;;-3.43;79.59;101681.46;99425;1168;89463;-63
2021/03/06 05:32:00;;;;;;;9.90;5.10;;;;;;;-3.40;80.35;101684.80;99436;1171;81966;-71
2021/03/06 05:34:05;;;;;;;11.35;6.05;;;;;;;-3.33;79.90;101674.82;99450;1168;66890;-71
2021/03/06 05:36:11;;;;;;;12.20;6.10;;;;;;;-3.25;79.75;101684.12;99437;1167;87787;-70
2021/03/06 05:38:20;;;;;;;13.70;6.30;;;;;;;-3.16;79.87;101681.02;99458;1173;74886;-63
2021/03/06 05:40:31;;;;;;;10.60;5.80;;;;;;;-3.10;80.02;101678.11;99446;1175;88987;-64
2021/03/06 05:42:38;;;;;;;12.35;5.95;;;;;;;-3.02;79.55;101680.38;99435;1175;82182;-63
2021/03/06 05:44:44;;;;;;;14.35;6.50;;;;;;;-2.99;79.55;101681.11;99443;1175;66878;-62
2021/03/06 05:46:52;;;;;;;14.45;7.30;;;;;;;-2.94;79.53;101677.41;99433;1174;87785;-62
2021/03/06 05:48:58;;;;;;;12.90;6.50;;;;;;;-2.88;79.69;101682.41;99449;1168;74474;-61
2021/03/06 05:51:05;;;;;;;14.50;8.10;;;;;;;-2.83;79.42;101685.69;99439;1175;88963;-61
2021/03/06 05:53:15;;;;;;;12.80;7.35;;;;;;;-2.72;79.37;101692.15;99422;1175;82486;-62
2021/03/06 05:55:23;;;;;;;13.60;7.30;;;;;;;-2.65;79.35;101695.37;99451;1171;67077;-61
2021/03/06 05:57:32;;;;;;;15.00;7.00;;;;;;;-2.59;79.73;101687.14;99435;1168;86821;-61
2021/03/06 05:59:39;;;;;;;15.30;7.20;;;;;;;-2.48;79.78;101693.64;99442;1174;75681;-62
2021/03/06 06:01:45;;;;;;;11.70;5.60;;;;;;;-2.40;79.51;101701.19;99445;1174;89422;-62
2021/03/06 06:03:51;;;;;;;10.55;6.15;;;;;;;-2.32;79.88;101693.73;99431;1175;82440;-61
2021/03/06 06:05:57;;;;;;;12.10;5.60;;;;;;;-2.18;79.95;101693.04;99442;1175;66882;-61
2021/03/06 06:08:05;;;;;;;11.75;6.00;;;;;;;-2.18;79.81;101701.84;99432;1175;87391;-63
2021/03/06 06:10:14;;;;;;;11.80;5.85;;;;;;;-1.69;79.92;101708.14;99460;1175;75860;-62
2021/03/06 06:12:19;;;;;;;12.60;5.70;;;;;;;-1.67;79.83;101706.27;99439;1171;89725;-61
2021/03/06 06:14:28;;;;;;;10.07;5.33;;;;;;;-1.58;79.62;101710.23;99432;1175;83159;-61
2021/03/06 06:16:36;;;;;;;10.70;5.50;;;;;;;-1.50;79.25;101710.68;99432;1175;67077;-61
2021/03/06 06:18:44;;;;;;;11.00;6.10;;;;;;;-1.46;79.60;101718.41;99437;1171;86380;-71
2021/03/06 06:20:50;;;;;;;13.80;6.50;;;;;;;-1.45;79.01;101716.59;99442;1175;74875;-71
2021/03/06 06:23:16;;;;;;;14.30;5.73;;;;;;;-1.47;79.05;101721.98;99445;1175;89801;-62
2021/03/06 06:25:37;;;;;;;11.65;5.70;;;;;;;-1.40;79.30;101725.18;99417;1175;81838;-62
2021/03/06 06:27:43;;;;;;;12.85;5.90;;;;;;;-1.34;79.25;101724.83;99446;1171;67077;-61
2021/03/06 06:29:51;;;;;;;12.20;6.30;;;;;;;-1.23;79.04;101735.72;99423;1175;87695;-61
2021/03/06 06:32:01;;;;;;;13.75;5.95;;;;;;;-1.13;79.50;101733.45;99435;1175;74949;-71
2021/03/06 06:34:15;;;;;;;12.10;5.90;;;;;;;-1.14;78.80;101737.03;99433;1175;89447;-72
2021/03/06 06:36:37;;;;;;;17.20;7.40;;;;;;;-1.16;79.39;101738.92;99427;1175;82582;-70
2021/03/06 06:38:45;;;;;;;13.35;6.40;;;;;;;-1.04;79.36;101739.10;99444;1175;66879;-61
2021/03/06 06:40:57;;;;;;;13.85;6.60;;;;;;;-1.04;79.24;101736.45;99437;1171;87995;-61
2021/03/06 06:43:21;;;;;;;11.67;6.30;;;;;;;-0.89;78.66;101748.03;99462;1172;74525;-62
2021/03/06 06:45:37;;;;;;;12.30;6.10;;;;;;;-0.75;78.59;101751.66;99443;1175;88972;-62
2021/03/06 06:47:45;;;;;;;14.45;6.70;;;;;;;-0.70;78.63;101749.59;99425;1175;82562;-61
2021/03/06 06:49:53;;;;;;;14.25;7.50;;;;;;;-0.48;78.75;101749.26;99445;1168;66878;-61
2021/03/06 06:52:05;;;;;;;14.10;6.50;;;;;;;-0.43;78.55;101749.85;99431;1175;87293;-71
2021/03/06 06:54:14;;;;;;;13.60;6.95;;;;;;;0.02;79.14;101751.69;99445;1171;74493;-72
2021/03/06 06:56:26;;;;;;;12.80;6.00;;;;;;;1.60;79.17;101751.59;99442;1175;89719;-71
2021/03/06 06:58:36;;;;;;;12.15;5.80;;;;;;;2.05;77.71;101746.88;99424;1175;82896;-61
2021/03/06 07:00:42;;;;;;;11.40;6.50;;;;;;;1.84;77.09;101742.97;99454;1175;67301;-62
2021/03/06 07:02:56;;;;;;;11.40;6.20;;;;;;;1.74;77.08;101751.55;99428;1175;87468;-72
2021/03/06 07:05:02;;;;;;;;;;;;;;;1.41;76.97;101748.41;99466;1175;76297;-72
2021/03/06 07:07:11;;;;;;;11.80;5.80;;;;;;;1.19;76.98;101751.57;99446;1175;88552;-72
2021/03/06 07:09:17;;;;;;;11.60;5.90;;;;;;;1.00;76.64;101755.47;99420;1173;81975;-72
2021/03/06 07:11:27;;;;;;;8.83;5.30;;;;;;;0.89;76.79;101755.28;99443;1168;67093;-72
2021/03/06 07:13:42;;;;;;;9.95;5.65;;;;;;;0.98;77.33;101757.38;99446;1175;87876;-61
2021/03/06 07:15:56;;;;;;;14.90;6.00;;;;;;;1.08;76.74;101763.83;99446;1175;75563;-62
2021/03/06 07:18:06;;;;;;;;;;;;;;;1.05;76.75;101761.36;99467;1175;89204;-62
2021/03/06 07:20:27;;;;;;;16.70;8.70;;;;;;;1.11;76.83;101758.32;99427;1171;82845;-62
2021/03/06 07:22:36;;;;;;;13.90;7.80;;;;;;;1.17;76.62;101763.27;99438;1175;66801;-60
2021/03/06 07:24:42;;;;;;;12.85;6.30;;;;;;;1.17;76.39;101757.95;99451;1175;87929;-62
2021/03/06 07:26:51;;;;;;;11.00;5.80;;;;;;;1.52;76.73;101756.56;99450;1167;76088;-71
2021/03/06 07:28:57;;;;;;;11.07;5.50;;;;;;;1.60;76.54;101758.72;99438;1174;88641;-71
2021/03/06 07:31:04;;;;;;;11.90;6.10;;;;;;;1.55;76.63;101750.17;99429;1168;82705;-72
2021/03/06 07:33:16;;;;;;;9.40;5.40;;;;;;;1.75;76.81;101750.61;99445;1174;66800;-71
2021/03/06 07:35:24;;;;;;;11.37;4.97;;;;;;;2.15;76.78;101753.30;99427;1174;87367;-72
2021/03/06 07:37:31;;;;;;;9.90;5.40;;;;;;;2.35;75.48;101758.16;99455;1167;74674;-62
2021/03/06 07:39:42;;;;;;;10.10;5.40;;;;;;;2.13;75.33;101752.55;99452;1174;90274;-61
2021/03/06 07:41:59;;;;;;;10.25;5.40;;;;;;;2.34;75.85;101753.77;99429;1171;82056;-71
2021/03/06 07:44:05;;;;;;;10.20;5.60;;;;;;;3.67;76.97;101746.96;99445;1171;67391;-72
2021/03/06 07:46:13;;;;;;;9.25;5.00;;;;;;;4.46;74.85;101749.88;99439;1168;87242;-72
2021/03/06 07:48:20;;;;;;;11.00;6.20;;;;;;;4.71;74.30;101747.02;99458;1175;75330;-72
2021/03/06 07:50:30;;;;;;;10.15;5.40;;;;;;;4.62;73.84;101757.56;99435;1175;89534;-72
2021/03/06 07:52:39;;;;;;;10.40;6.25;;;;;;;5.14;74.39;101744.49;99418;1167;82877;-62
2021/03/06 07:54:45;;;;;;;9.10;5.10;;;;;;;5.72;72.98;101747.84;99441;1168;66844;-63
2021/03/06 07:56:52;;;;;;;9.55;5.05;;;;;;;5.44;72.24;101745.72;99434;1175;88045;-63
2021/03/06 07:58:58;;;;;;;10.20;5.70;;;;;;;5.04;71.73;101754.24;99441;1175;75406;-63
2021/03/06 08:01:04;;;;;;;12.15;5.60;;;;;;;5.74;71.75;101748.59;99441;1171;89582;-62
2021/03/06 08:03:40;;;;;;;11.30;5.67;;;;;;;6.13;71.08;101749.82;99433;1171;81819;-59
2021/03/06 08:05:49;;;;;;;10.75;5.50;;;;;;;6.03;69.80;101752.44;99443;1171;67033;-61
2021/03/06 08:07:55;;;;;;;8.00;5.10;;;;;;;5.90;70.05;101754.44;99437;1175;87566;-61
2021/03/06 08:10:02;;;;;;;8.10;4.60;;;;;;;6.60;70.08;101759.24;99447;1171;75219;-60
2021/03/06 08:12:08;;;;;;;10.60;5.00;;;;;;;6.32;68.74;101753.53;99436;1175;88689;-71
2021/03/06 08:14:38;;;;;;;8.55;4.65;;;;;;;5.89;68.00;101755.40;99419;1171;82987;-71
2021/03/06 08:16:43;;;;;;;8.60;4.20;;;;;;;5.81;68.79;101758.69;99447;1175;66917;-69
2021/03/06 08:18:50;;;;;;;8.20;5.30;;;;;;;7.08;69.48;101757.73;99439;1175;86389;-73
2021/03/06 08:20:56;;;;;;;8.60;5.60;;;;;;;7.54;67.69;101758.06;99447;1168;75734;-69
2021/03/06 08:23:24;;;;;;;10.30;5.70;;;;;;;7.35;65.72;101754.45;99440;1171;88293;-60
2021/03/06 08:25:30;;;;;;;10.70;4.90;;;;;;;6.80;66.19;101761.95;99428;1168;82289;-61
2021/03/06 08:27:39;;;;;;;8.40;4.90;;;;;;;6.10;65.78;101752.79;99443;1175;67090;-74
2021/03/06 08:29:46;;;;;;;9.55;5.50;;;;;;;5.78;66.11;101750.03;99439;1168;86849;-73
2021/03/06 08:31:57;;;;;;;9.00;5.20;;;;;;;5.74;66.21;101748.59;99448;1168;75475;-61
2021/03/06 08:37:36;;;;;;;7.97;4.93;;;;;;;7.40;66.30;101749.51;98051;1175;68927;-60
2021/03/06 08:39:43;;;;;;;7.40;4.50;;;;;;;7.35;65.46;101747.23;98070;1173;84337;-61
2021/03/06 08:41:48;;;;;;;6.85;4.55;;;;;;;7.01;64.46;101745.79;98091;1175;75153;-69
2021/03/06 08:43:54;;;;;;;8.70;5.10;;;;;;;7.67;65.01;101744.36;98084;1175;90034;-71
2021/03/06 08:46:01;;;;;;;9.80;5.00;;;;;;;8.37;64.78;101749.59;98055;1175;83707;-71
2021/03/06 08:48:11;;;;;;;8.80;4.87;;;;;;;10.82;64.81;101744.20;97990;1175;68940;-71
2021/03/06 08:50:20;;;;;;;9.13;5.37;;;;;;;12.53;61.57;101741.11;98745;1170;85183;-74
2021/03/06 08:52:28;;;;;;;10.13;5.37;;;;;;;12.71;59.39;101741.80;97983;1170;75041;-60
2021/03/06 08:54:41;;;;;;;10.80;6.67;;;;;;;11.43;58.48;101738.63;98082;1173;89725;-60
2021/03/06 08:56:51;;;;;;;10.85;6.90;;;;;;;10.80;57.87;101751.59;98099;1173;82186;-61
2021/03/06 08:58:56;;;;;;;12.65;6.80;;;;;;;11.06;58.31;101741.66;98059;1174;69176;-62
2021/03/06 09:01:05;;;;;;;15.87;10.27;;;;;;;12.03;58.04;101736.66;98043;1171;85897;-62
2021/03/06 09:03:16;;;;;;;12.93;7.80;;;;;;;11.57;55.43;101739.86;98089;1171;74672;-62
2021/03/06 09:05:24;;;;;;;10.03;6.17;;;;;;;12.01;56.18;101735.98;98099;1175;89852;-62
2021/03/06 09:07:32;;;;;;;9.45;6.30;;;;;;;12.06;54.84;101730.91;98040;1175;82526;-72
2021/03/06 09:09:39;;;;;;;8.50;6.40;;;;;;;12.88;54.35;101740.78;98076;1173;68074;-73
2021/03/06 09:11:59;;;;;;;9.57;5.70;;;;;;;12.89;54.99;101729.75;98085;1173;84728;-61
2021/03/06 09:14:10;;;;;;;9.37;6.03;;;;;;;13.57;51.99;101734.66;98099;1171;75555;-60
2021/03/06 09:16:16;;;;;;;10.90;6.80;;;;;;;13.64;51.81;101727.52;98086;1175;89209;-60
2021/03/06 09:18:24;;;;;;;10.80;7.60;;;;;;;13.51;50.19;101730.78;98070;1175;83139;-72
2021/03/06 09:20:36;;;;;;;11.50;7.30;;;;;;;13.28;50.56;101727.14;98109;1171;69123;-72
2021/03/06 09:22:47;;;;;;;11.20;6.90;;;;;;;14.06;50.68;101724.41;98075;1174;85748;-72
2021/03/06 09:24:56;;;;;;;11.00;6.10;;;;;;;14.75;50.61;101724.20;98086;1175;75975;-72
2021/03/06 09:27:02;;;;;;;9.27;6.00;;;;;;;14.90;48.85;101715.23;98049;1175;89537;-63
2021/03/06 09:29:11;;;;;;;9.43;6.20;;;;;;;15.52;48.28;101719.31;98106;1175;83229;-63
2021/03/06 09:31:26;;;;;;;11.35;6.00;;;;;;;15.41;46.31;101711.58;98065;1170;69206;-64
2021/03/06 09:33:38;;;;;;;8.30;5.60;;;;;;;15.66;45.83;101715.73;98143;1175;86244;-67
2021/03/06 09:35:56;;;;;;;7.40;4.70;;;;;;;15.79;44.63;101709.61;98083;1173;76464;-68
2021/03/06 09:38:11;;;;;;;6.83;4.80;;;;;;;15.65;44.47;101708.61;98086;1175;89071;-72
2021/03/06 09:40:22;;;;;;;9.40;6.07;;;;;;;15.84;43.69;101708.00;98044;1174;82356;-62
2021/03/06 09:42:28;;;;;;;8.10;5.40;;;;;;;15.92;42.91;101707.89;98096;1170;69125;-71
2021/03/06 09:44:34;;;;;;;9.10;4.97;;;;;;;15.88;41.90;101708.44;98097;1173;85481;-62
2021/03/06 09:46:44;;;;;;;5.95;4.40;;;;;;;15.52;42.42;101713.86;98090;1173;75209;-65
2021/03/06 09:48:55;;;;;;;7.15;5.10;;;;;;;14.86;41.17;101711.20;98062;1169;89139;-68
2021/03/06 09:51:01;;;;;;;8.60;5.50;;;;;;;14.45;42.04;101708.02;98057;1170;82839;-70
2021/03/06 09:53:23;;;;;;;9.80;5.90;;;;;;;14.86;41.91;101701.14;97977;1178;69199;-70
2021/03/06 09:55:29;;;;;;;7.85;6.15;;;;;;;14.45;41.00;101708.02;98077;1175;84820;-61
2021/03/06 09:57:34;;;;;;;8.53;5.97;;;;;;;14.44;40.68;101712.60;98085;1171;74879;-72